Time;durP1;ratioP1;P1;durP2;ratioP2;P2;SDS_P1;SDS_P2;PMS_P1;PMS_P2;Temp;Humidity;BMP_temperature;BMP_pressure;BME280_temperature;BME280_humidity;BME280_pressure;Samples;Min_cycle;Max_cycle;Signal;HPM_P1;HPM_P2
2022/03/16 00:00:18;;;;;;;49.90;27.58;;;6.00;99.90;;;5.71;96.84;98358.22;4986711;28;20084;-70
2022/03/16 00:02:46;;;;;;;39.05;24.17;;;6.10;99.90;;;5.68;97.27;98355.69;5004268;28;20100;-70
2022/03/16 00:05:14;;;;;;;43.42;26.52;;;6.20;99.90;;;5.57;97.79;98352.34;5001064;28;20060;-70
2022/03/16 00:07:42;;;;;;;36.33;23.92;;;6.20;99.90;;;5.60;97.92;98360.88;4998247;28;20142;-69
2022/03/16 00:10:11;;;;;;;33.63;21.80;;;6.10;99.90;;;5.65;98.26;98353.13;5012836;28;20523;-69
2022/03/16 00:12:41;;;;;;;31.33;20.35;;;6.20;99.90;;;5.65;98.68;98353.13;4998967;28;20123;-69
2022/03/16 00:15:09;;;;;;;35.55;23.38;;;6.20;99.90;;;5.64;99.16;98356.56;5001005;28;20150;-70
2022/03/16 00:17:36;;;;;;;34.70;22.80;;;6.20;99.90;;;5.66;99.53;98362.56;5000666;28;20567;-70
2022/03/16 00:20:04;;;;;;;39.53;24.88;;;6.20;99.90;;;5.75;99.93;98357.31;5003912;28;20100;-70
2022/03/16 00:22:31;;;;;;;36.80;23.67;;;6.20;99.90;;;5.78;100.00;98359.00;5000729;28;20078;-69
2022/03/16 00:24:58;;;;;;;33.70;21.85;;;6.20;99.90;;;5.86;100.00;98349.44;5001217;28;20077;-69
2022/03/16 00:27:25;;;;;;;27.90;19.40;;;6.20;99.90;;;5.70;100.00;98353.91;5003003;28;20424;-70
2022/03/16 00:29:52;;;;;;;34.28;21.92;;;6.20;99.90;;;5.54;100.00;98354.94;5001902;28;20141;-69
2022/03/16 00:32:19;;;;;;;31.58;21.67;;;6.20;99.90;;;5.58;100.00;98349.75;5000929;28;20049;-69
2022/03/16 00:34:46;;;;;;;34.35;22.02;;;6.20;99.90;;;5.68;100.00;98347.06;4997486;28;20158;-69
2022/03/16 00:37:13;;;;;;;31.90;21.20;;;6.10;99.90;;;5.68;100.00;98344.50;4996836;28;20074;-70
2022/03/16 00:39:40;;;;;;;33.72;21.25;;;6.10;99.90;;;5.73;100.00;98351.31;4997187;28;20499;-69
2022/03/16 00:42:08;;;;;;;28.92;18.75;;;6.10;99.90;;;5.84;100.00;98352.06;4996607;28;20057;-68
2022/03/16 00:44:35;;;;;;;30.33;20.15;;;6.20;99.90;;;5.89;100.00;98351.16;4995823;28;20137;-69
2022/03/16 00:47:04;;;;;;;32.00;21.25;;;6.20;99.90;;;5.82;100.00;98347.78;5016971;28;20054;-70
2022/03/16 00:49:32;;;;;;;32.78;20.83;;;6.30;99.90;;;5.75;100.00;98347.00;4998777;28;20052;-69
2022/03/16 00:52:00;;;;;;;33.60;20.10;;;6.30;99.90;;;5.82;100.00;98347.78;5000294;28;20133;-68
2022/03/16 00:54:29;;;;;;;35.20;21.52;;;6.20;99.90;;;5.65;100.00;98345.38;5001256;28;20050;-70
2022/03/16 00:56:57;;;;;;;31.88;20.83;;;6.20;99.90;;;5.62;100.00;98348.84;5001163;28;20058;-69
2022/03/16 00:59:23;;;;;;;35.33;22.88;;;6.20;99.90;;;5.39;100.00;98343.09;5001220;28;20145;-69
2022/03/16 01:01:51;;;;;;;32.15;21.10;;;6.10;99.90;;;5.48;100.00;98335.28;5001015;28;20118;-69
2022/03/16 01:04:18;;;;;;;35.33;21.65;;;6.10;99.90;;;5.70;100.00;98340.19;4990491;28;20050;-70
2022/03/16 01:06:45;;;;;;;40.13;24.10;;;6.10;99.90;;;5.56;100.00;98337.75;5000492;28;20056;-70
2022/03/16 01:09:13;;;;;;;34.33;22.50;;;6.10;99.90;;;5.63;100.00;98334.25;5000023;28;20096;-69
2022/03/16 01:11:40;;;;;;;41.08;24.70;;;6.10;99.90;;;5.44;100.00;98334.44;5001996;28;20080;-69
2022/03/16 01:14:07;;;;;;;33.42;21.15;;;6.10;99.90;;;5.57;100.00;98330.03;5002488;28;20046;-69
2022/03/16 01:16:36;;;;;;;34.08;21.83;;;6.10;99.90;;;5.67;100.00;98323.03;5006182;28;20232;-70
2022/03/16 01:19:04;;;;;;;34.25;22.23;;;6.10;99.90;;;5.41;100.00;98329.31;5003470;28;20077;-69
2022/03/16 01:21:32;;;;;;;37.90;23.00;;;6.00;99.90;;;5.40;100.00;98329.34;4998817;28;20125;-70
2022/03/16 01:23:59;;;;;;;34.40;22.77;;;6.00;99.90;;;5.50;100.00;98323.25;4999867;28;20432;-69
2022/03/16 01:26:26;;;;;;;40.70;25.27;;;6.10;99.90;;;5.57;100.00;98332.59;4996257;28;20232;-69
2022/03/16 01:28:53;;;;;;;33.95;21.85;;;6.10;99.90;;;5.75;100.00;98331.56;4999157;28;20140;-70
2022/03/16 01:31:21;;;;;;;30.83;20.55;;;6.20;99.90;;;5.92;100.00;98328.78;5000980;28;20041;-70
2022/03/16 01:33:48;;;;;;;31.48;20.20;;;6.30;99.90;;;5.77;100.00;98327.25;4999065;28;20045;-69
2022/03/16 01:36:15;;;;;;;33.58;21.92;;;6.30;99.90;;;5.84;100.00;98320.28;5006273;28;20345;-69
2022/03/16 01:38:42;;;;;;;34.17;21.70;;;6.30;99.90;;;5.79;100.00;98322.94;5001428;28;20074;-69
2022/03/16 01:41:09;;;;;;;34.80;23.50;;;6.30;99.90;;;5.81;100.00;98315.16;5001871;28;20499;-69
2022/03/16 01:43:36;;;;;;;30.63;20.00;;;6.30;99.90;;;5.90;100.00;98309.91;5006517;28;20161;-69
2022/03/16 01:46:04;;;;;;;28.60;20.45;;;6.30;99.90;;;5.94;100.00;98314.19;5002513;28;20045;-70
2022/03/16 01:48:31;;;;;;;29.88;19.13;;;6.30;99.90;;;6.08;100.00;98324.31;5016293;28;20046;-69
2022/03/16 01:50:59;;;;;;;28.75;19.27;;;6.40;99.90;;;5.96;100.00;98317.59;5001108;28;20054;-70
2022/03/16 01:53:26;;;;;;;28.50;19.90;;;6.40;99.90;;;6.07;100.00;98318.31;5006806;28;20053;-70
2022/03/16 01:55:54;;;;;;;30.23;19.75;;;6.40;99.90;;;6.13;100.00;98319.09;5016613;28;20507;-70
2022/03/16 01:58:21;;;;;;;27.30;19.58;;;6.40;99.90;;;5.85;100.00;98311.69;5000111;28;20058;-70
2022/03/16 02:00:48;;;;;;;30.25;20.20;;;6.50;99.90;;;6.00;100.00;98314.13;5004119;28;20125;-70
2022/03/16 02:03:15;;;;;;;27.85;18.58;;;6.40;99.90;;;6.02;100.00;98316.66;5002354;28;20060;-70
2022/03/16 02:05:43;;;;;;;27.70;17.98;;;6.40;99.90;;;6.10;100.00;98316.56;5002992;28;20140;-70
2022/03/16 02:08:10;;;;;;;26.98;17.95;;;6.50;99.90;;;6.00;100.00;98308.97;5005134;28;20088;-70
2022/03/16 02:10:40;;;;;;;25.20;16.95;;;6.40;99.90;;;5.91;100.00;98298.75;5007544;28;21607;-70
2022/03/16 02:13:10;;;;;;;27.00;17.77;;;6.50;99.90;;;5.96;100.00;98303.88;5006120;28;20067;-70
2022/03/16 02:15:39;;;;;;;23.52;16.27;;;6.40;99.90;;;6.00;100.00;98300.38;5011599;28;20494;-70
2022/03/16 02:18:06;;;;;;;24.05;16.45;;;6.50;99.90;;;5.96;100.00;98299.56;5006527;28;20089;-70
2022/03/16 02:20:33;;;;;;;24.17;15.88;;;6.50;99.90;;;5.87;100.00;98299.63;5006097;28;20077;-70
2022/03/16 02:23:06;;;;;;;25.73;16.90;;;6.50;99.90;;;5.68;100.00;98299.00;5005424;28;20081;-70
2022/03/16 02:25:50;;;;;;;27.00;18.38;;;6.40;99.90;;;5.69;100.00;98290.41;5006900;28;20142;-70
2022/03/16 02:28:19;;;;;;;27.27;18.77;;;6.30;99.90;;;5.59;100.00;98293.97;5005882;28;20045;-70
2022/03/16 02:30:47;;;;;;;25.83;17.40;;;6.30;99.90;;;5.48;100.00;98293.22;5005556;28;20132;-70
2022/03/16 02:33:14;;;;;;;22.55;15.50;;;6.30;99.90;;;5.41;100.00;98289.88;5006624;28;20392;-71
2022/03/16 02:35:41;;;;;;;27.25;17.52;;;6.20;99.90;;;5.55;100.00;98308.59;5007906;28;20054;-71
2022/03/16 02:38:08;;;;;;;25.52;16.10;;;6.20;99.90;;;5.45;100.00;98307.84;5008660;28;20077;-71
2022/03/16 02:40:35;;;;;;;24.50;15.68;;;6.20;99.90;;;5.40;100.00;98307.00;5007946;28;20123;-70
2022/03/16 02:43:02;;;;;;;24.13;15.52;;;6.20;99.90;;;5.60;100.00;98314.53;5006467;28;20053;-71
2022/03/16 02:45:29;;;;;;;21.77;15.20;;;6.20;99.90;;;5.49;100.00;98306.06;5007941;28;20086;-70
2022/03/16 02:47:56;;;;;;;21.60;14.73;;;6.10;99.90;;;5.52;100.00;98308.63;5005136;28;20044;-71
2022/03/16 02:50:23;;;;;;;22.85;15.00;;;6.20;99.90;;;5.72;100.00;98317.84;5004243;28;20056;-71
2022/03/16 02:52:50;;;;;;;22.23;14.65;;;6.20;99.90;;;5.54;100.00;98318.88;5023428;28;20116;-70
2022/03/16 02:55:37;;;;;;;19.70;13.48;;;6.20;99.90;;;5.67;100.00;98320.47;5017249;28;20054;-70
2022/03/16 02:58:04;;;;;;;22.02;14.93;;;6.20;99.90;;;5.73;100.00;98317.00;5003100;28;20066;-71
2022/03/16 03:00:32;;;;;;;24.27;14.85;;;6.20;99.90;;;5.81;100.00;98317.75;5004886;28;20050;-71
2022/03/16 03:02:59;;;;;;;21.92;15.10;;;6.30;99.90;;;5.73;100.00;98315.25;5008892;28;20401;-70
2022/03/16 03:05:27;;;;;;;22.38;14.25;;;6.30;99.90;;;5.91;100.00;98316.78;5002600;28;20069;-71
2022/03/16 03:07:54;;;;;;;21.38;13.88;;;6.30;99.90;;;5.92;100.00;98320.19;5006189;28;20056;-71
2022/03/16 03:10:21;;;;;;;21.88;13.40;;;6.40;99.90;;;5.90;100.00;98311.63;5001724;28;20520;-70
2022/03/16 03:12:48;;;;;;;21.42;14.68;;;6.30;99.90;;;5.69;100.00;98318.72;5007094;28;20076;-70
2022/03/16 03:15:15;;;;;;;25.38;17.48;;;6.30;99.90;;;5.74;100.00;98314.38;5005979;28;20108;-70
2022/03/16 03:17:43;;;;;;;25.83;17.23;;;6.30;99.90;;;5.79;100.00;98314.31;5004759;28;20132;-70
2022/03/16 03:20:11;;;;;;;22.52;15.13;;;6.30;99.90;;;5.82;100.00;98316.88;5004156;28;20050;-71
2022/03/16 03:22:40;;;;;;;25.40;17.77;;;6.30;99.90;;;5.63;100.00;98309.38;5005291;28;20077;-70
2022/03/16 03:25:13;;;;;;;33.70;21.42;;;6.30;99.90;;;5.60;100.00;98319.69;5001721;28;20081;-71
2022/03/16 03:27:40;;;;;;;24.90;17.25;;;6.20;99.90;;;5.50;100.00;98319.81;5005687;28;20129;-70
2022/03/16 03:30:09;;;;;;;29.58;17.73;;;6.20;99.90;;;5.60;100.00;98318.84;5004231;28;20137;-71
2022/03/16 03:32:36;;;;;;;25.38;17.55;;;6.20;99.90;;;5.53;100.00;98317.19;5008211;28;20060;-71
2022/03/16 03:35:05;;;;;;;33.05;19.63;;;6.20;99.90;;;5.61;100.00;98328.25;5004605;28;20527;-70
2022/03/16 03:37:32;;;;;;;30.40;18.95;;;6.20;99.90;;;5.42;100.00;98323.28;5007807;28;20120;-71
2022/03/16 03:39:59;;;;;;;31.02;19.77;;;6.20;99.90;;;5.56;100.00;98324.88;5003174;28;20569;-70
2022/03/16 03:42:26;;;;;;;28.55;18.33;;;6.10;99.90;;;5.54;100.00;98324.03;5004206;28;20129;-71
2022/03/16 03:44:53;;;;;;;31.95;20.15;;;6.10;99.90;;;5.45;100.00;98322.41;5021956;28;20053;-70
2022/03/16 03:47:20;;;;;;;30.00;19.60;;;6.10;99.90;;;5.39;100.00;98330.22;5002817;28;20136;-70
2022/03/16 03:49:47;;;;;;;30.52;20.23;;;6.10;99.90;;;5.46;100.00;98329.28;5005341;28;20046;-70
2022/03/16 03:52:14;;;;;;;32.15;20.67;;;6.00;99.90;;;5.49;100.00;98338.69;5002957;28;20498;-70
2022/03/16 03:54:42;;;;;;;38.50;23.15;;;6.00;99.90;;;5.52;100.00;98338.66;4999115;28;20129;-71
2022/03/16 03:57:09;;;;;;;30.27;20.92;;;6.10;99.90;;;5.23;100.00;98340.66;5005862;28;20161;-70
2022/03/16 03:59:36;;;;;;;39.47;23.25;;;6.00;99.90;;;5.26;100.00;98333.78;4999884;28;20459;-70
2022/03/16 04:02:03;;;;;;;42.47;25.50;;;6.00;99.90;;;5.18;100.00;98337.28;5005475;28;20468;-70
2022/03/16 04:04:30;;;;;;;34.90;22.40;;;5.90;99.90;;;5.27;100.00;98345.75;5001694;28;20459;-70
2022/03/16 04:06:58;;;;;;;38.78;23.92;;;5.90;99.90;;;5.26;100.00;98341.50;4998916;28;20052;-70
2022/03/16 04:09:26;;;;;;;48.20;28.17;;;5.90;99.90;;;5.07;100.00;98340.81;5000580;28;20129;-70
2022/03/16 04:11:52;;;;;;;54.40;31.48;;;5.80;99.90;;;5.10;100.00;98343.34;5000864;28;20104;-71
2022/03/16 04:14:19;;;;;;;39.50;25.30;;;5.70;99.90;;;5.11;100.00;98353.63;5002720;28;20048;-71
2022/03/16 04:16:46;;;;;;;39.65;25.40;;;5.80;99.90;;;5.06;100.00;98351.94;5002738;28;20104;-71
2022/03/16 04:19:14;;;;;;;56.15;30.45;;;5.80;99.90;;;4.99;100.00;98349.41;5004328;28;20053;-71
2022/03/16 04:21:41;;;;;;;47.22;29.20;;;5.70;99.90;;;5.10;100.00;98345.91;5012577;28;20149;-71
2022/03/16 04:24:08;;;;;;;50.65;30.75;;;5.70;99.90;;;5.10;100.00;98346.75;5009101;28;20107;-70
2022/03/16 04:26:35;;;;;;;47.25;28.90;;;5.80;99.90;;;5.06;100.00;98345.06;5009228;28;20096;-71
2022/03/16 04:29:02;;;;;;;48.03;29.58;;;5.80;99.90;;;5.06;100.00;98344.22;5006123;28;20105;-70
2022/03/16 04:31:29;;;;;;;44.13;27.50;;;5.80;99.90;;;5.17;100.00;98348.41;5006331;28;20128;-71
2022/03/16 04:33:57;;;;;;;59.35;34.47;;;5.80;99.90;;;5.11;100.00;98343.34;5019248;28;20069;-70
2022/03/16 04:36:26;;;;;;;57.85;32.40;;;5.70;99.90;;;5.01;100.00;98341.69;5006619;28;20074;-71
2022/03/16 04:38:53;;;;;;;62.40;33.97;;;5.80;99.90;;;5.08;100.00;98348.50;5009314;28;20045;-70
2022/03/16 04:41:20;;;;;;;54.53;33.70;;;5.80;99.90;;;5.03;100.00;98337.38;5004038;28;20062;-70
2022/03/16 04:43:47;;;;;;;55.35;33.03;;;5.80;99.90;;;5.06;100.00;98339.09;5004914;28;20568;-72
2022/03/16 04:46:14;;;;;;;65.50;36.15;;;5.80;99.90;;;5.07;100.00;98340.81;5008140;28;20412;-70
2022/03/16 04:48:41;;;;;;;66.75;36.05;;;5.70;99.90;;;5.01;100.00;98349.41;5008098;28;20057;-70
2022/03/16 04:51:08;;;;;;;57.58;32.90;;;5.70;99.90;;;5.14;100.00;98347.59;5007855;28;20132;-70
2022/03/16 04:53:35;;;;;;;58.53;33.03;;;5.70;99.90;;;5.12;100.00;98349.34;5004913;28;20065;-71
2022/03/16 04:56:02;;;;;;;70.80;37.13;;;5.80;99.90;;;5.08;100.00;98348.50;5006906;28;20076;-71
2022/03/16 04:58:31;;;;;;;69.93;37.90;;;5.70;99.90;;;5.11;100.00;98342.47;5003037;28;20050;-70
2022/03/16 05:00:58;;;;;;;73.47;38.17;;;5.80;99.90;;;5.03;100.00;98333.09;5002508;28;20084;-71
2022/03/16 05:03:26;;;;;;;71.40;37.83;;;5.70;99.90;;;4.96;100.00;98338.31;5001743;28;20054;-71
2022/03/16 05:05:53;;;;;;;64.03;36.20;;;5.70;99.90;;;4.88;100.00;98337.50;5002407;28;20513;-71
2022/03/16 05:08:20;;;;;;;78.90;41.05;;;5.70;99.90;;;5.06;100.00;98345.06;5014372;28;20060;-71
2022/03/16 05:10:47;;;;;;;79.68;41.67;;;5.70;99.90;;;5.03;100.00;98345.13;5005984;28;20217;-71
2022/03/16 05:13:14;;;;;;;97.55;43.90;;;5.60;99.90;;;4.97;100.00;98348.59;5010992;28;20054;-71
2022/03/16 05:15:41;;;;;;;95.93;43.55;;;5.70;99.90;;;4.99;100.00;98356.28;5009760;28;20081;-70
2022/03/16 05:18:09;;;;;;;87.75;41.13;;;5.70;99.90;;;5.00;100.00;98352.88;5009874;28;20132;-70
2022/03/16 05:20:36;;;;;;;99.88;44.53;;;5.70;99.90;;;4.82;100.00;98354.69;5013481;28;20049;-70
2022/03/16 05:23:03;;;;;;;82.85;42.33;;;5.60;99.90;;;4.93;100.00;98361.50;5011604;28;20073;-70
2022/03/16 05:25:30;;;;;;;82.30;43.53;;;5.60;99.90;;;4.91;100.00;98364.06;5009262;28;20133;-70
2022/03/16 05:27:57;;;;;;;102.82;45.85;;;5.60;99.90;;;4.99;100.00;98371.72;5012774;28;20049;-70
2022/03/16 05:30:26;;;;;;;114.57;48.65;;;5.60;99.90;;;5.01;100.00;98375.13;5011883;28;20125;-70
2022/03/16 05:32:57;;;;;;;88.90;42.85;;;5.60;99.90;;;4.99;100.00;98372.56;5011381;28;20128;-70
2022/03/16 05:35:24;;;;;;;105.15;48.70;;;5.70;99.90;;;4.86;100.00;98367.53;5009926;28;20533;-71
2022/03/16 05:37:51;;;;;;;135.52;54.42;;;5.60;99.90;;;4.80;100.00;98368.44;5013537;28;20145;-70
2022/03/16 05:40:18;;;;;;;100.05;47.38;;;5.60;99.90;;;4.96;99.88;98374.31;5013890;28;20125;-70
2022/03/16 05:42:46;;;;;;;123.20;50.55;;;5.60;99.90;;;4.85;99.96;98373.56;5009056;28;20042;-70
2022/03/16 05:45:13;;;;;;;95.40;48.25;;;5.50;99.90;;;4.86;99.63;98380.38;5010148;28;20054;-70
2022/03/16 05:47:40;;;;;;;90.60;43.33;;;5.60;99.90;;;4.96;99.37;98374.31;5011987;28;20046;-70
2022/03/16 05:50:07;;;;;;;104.28;46.45;;;5.60;99.90;;;4.84;99.48;98382.16;5007129;28;20542;-70
2022/03/16 05:52:35;;;;;;;119.10;48.40;;;5.60;99.90;;;4.91;99.20;98376.09;5010871;28;20077;-70
2022/03/16 05:55:05;;;;;;;109.80;48.80;;;5.50;99.90;;;5.01;98.87;98378.56;5008411;28;20552;-71
2022/03/16 05:57:32;;;;;;;99.13;47.40;;;5.60;99.90;;;4.94;98.96;98373.47;5006283;28;20141;-70
2022/03/16 05:59:59;;;;;;;128.32;51.05;;;5.60;99.90;;;4.89;98.96;98373.53;5008637;28;20081;-71
2022/03/16 06:02:26;;;;;;;134.38;51.25;;;5.50;99.90;;;4.79;98.93;98367.59;5007410;28;20212;-70
2022/03/16 06:04:52;;;;;;;130.10;49.17;;;5.50;99.90;;;4.92;98.71;98370.91;5008511;28;20049;-69
2022/03/16 06:07:19;;;;;;;101.38;47.80;;;5.60;99.90;;;4.89;98.54;98363.22;5010047;28;20133;-72
2022/03/16 06:09:47;;;;;;;119.10;51.17;;;5.60;99.90;;;4.91;98.44;98363.22;5007870;28;20129;-70
2022/03/16 06:12:14;;;;;;;113.65;49.10;;;5.60;99.90;;;4.91;98.39;98368.38;5009736;28;20060;-70
2022/03/16 06:14:41;;;;;;;127.32;49.35;;;5.60;99.90;;;4.92;98.35;98370.91;5009878;28;20132;-70
2022/03/16 06:17:08;;;;;;;124.53;49.67;;;5.60;99.90;;;4.90;98.35;98379.50;5007542;28;20058;-71
2022/03/16 06:19:36;;;;;;;140.88;53.20;;;5.60;99.90;;;4.94;98.26;98379.47;5001073;28;20058;-71
2022/03/16 06:22:03;;;;;;;125.75;51.55;;;5.60;99.90;;;5.01;98.25;98390.59;5015337;28;20053;-71
2022/03/16 06:24:30;;;;;;;124.82;50.67;;;5.60;99.90;;;5.07;98.22;98390.53;5003712;28;20100;-71
2022/03/16 06:26:59;;;;;;;104.35;46.33;;;5.70;99.90;;;5.16;98.19;98389.63;5006292;28;20126;-71
2022/03/16 06:29:26;;;;;;;102.40;45.15;;;5.70;99.90;;;5.23;98.29;98386.97;5016772;28;20060;-70
2022/03/16 06:31:53;;;;;;;89.72;42.90;;;5.80;99.90;;;5.30;98.44;98392.09;5005167;28;20076;-70
2022/03/16 06:34:20;;;;;;;79.75;41.72;;;5.90;99.90;;;5.30;98.73;98394.66;5004148;28;20373;-71
2022/03/16 06:36:48;;;;;;;82.43;42.80;;;5.90;99.90;;;5.34;98.96;98388.63;5003445;28;20057;-70
2022/03/16 06:39:16;;;;;;;74.55;40.88;;;5.90;99.90;;;5.32;99.20;98396.34;5002289;28;20124;-70
2022/03/16 06:41:43;;;;;;;77.45;40.78;;;5.90;99.90;;;5.24;99.40;98390.41;5004251;28;20065;-71
2022/03/16 06:44:11;;;;;;;121.30;49.53;;;5.90;99.90;;;5.20;99.59;98397.31;4997691;28;20128;-71
2022/03/16 06:46:38;;;;;;;95.25;43.45;;;5.80;99.90;;;5.42;99.40;98395.38;5006201;28;20108;-70
2022/03/16 06:49:05;;;;;;;81.22;42.72;;;5.90;99.90;;;5.66;99.54;98393.47;4995086;28;20157;-71
2022/03/16 06:51:32;;;;;;;73.70;39.75;;;6.00;99.90;;;5.60;100.00;98394.38;5001290;28;20140;-71
2022/03/16 06:53:59;;;;;;;74.65;40.58;;;6.00;99.90;;;5.65;100.00;98402.91;5009104;28;20046;-71
2022/03/16 06:56:26;;;;;;;72.05;40.90;;;6.10;99.90;;;5.64;100.00;98402.94;5003855;28;20050;-70
2022/03/16 06:58:53;;;;;;;80.50;42.35;;;6.20;99.90;;;5.60;100.00;98414.97;5020395;28;20499;-70
2022/03/16 07:01:20;;;;;;;75.65;40.85;;;6.20;99.90;;;5.73;100.00;98409.72;5003946;28;20088;-70
2022/03/16 07:03:47;;;;;;;69.95;39.42;;;6.20;99.90;;;5.73;100.00;98402.00;5005823;28;20392;-70
2022/03/16 07:06:14;;;;;;;71.30;40.65;;;6.30;99.90;;;5.92;100.00;98410.38;5004093;28;20132;-70
2022/03/16 07:08:41;;;;;;;83.50;44.85;;;6.30;99.90;;;5.82;100.00;98405.31;5001374;28;20133;-70
2022/03/16 07:11:08;;;;;;;66.10;38.83;;;6.40;99.90;;;5.94;100.00;98406.06;5003286;28;20133;-70
2022/03/16 07:13:35;;;;;;;62.55;37.78;;;6.40;99.90;;;5.96;100.00;98402.63;5003484;28;20084;-70
2022/03/16 07:16:02;;;;;;;61.80;37.08;;;6.50;99.90;;;6.12;100.00;98405.91;5003795;28;20590;-70
2022/03/16 07:18:29;;;;;;;71.57;39.90;;;6.60;99.90;;;6.06;100.00;98401.66;5003621;28;20050;-70
2022/03/16 07:20:56;;;;;;;59.67;37.78;;;6.60;99.90;;;5.90;100.00;98404.38;5001087;28;20141;-70
2022/03/16 07:23:23;;;;;;;64.05;37.20;;;6.70;99.90;;;6.06;100.00;98404.22;5001175;28;20054;-70
2022/03/16 07:25:51;;;;;;;60.88;37.60;;;6.70;99.90;;;6.35;100.00;98399.63;5004144;28;20046;-71
2022/03/16 07:28:20;;;;;;;66.28;39.38;;;6.70;99.90;;;6.43;100.00;98396.06;5002605;28;20128;-71
2022/03/16 07:30:48;;;;;;;58.17;34.92;;;6.80;99.90;;;6.45;100.00;98396.03;5001893;28;20069;-70
2022/03/16 07:33:16;;;;;;;57.38;34.47;;;6.90;99.90;;;6.48;100.00;98393.44;5003699;28;20149;-69
2022/03/16 07:35:43;;;;;;;56.83;35.08;;;7.00;99.90;;;6.69;100.00;98407.75;5016427;28;20505;-70
2022/03/16 07:38:11;;;;;;;56.13;34.95;;;7.10;99.90;;;6.75;100.00;98401.66;4999372;28;20289;-70
2022/03/16 07:40:38;;;;;;;54.80;35.10;;;7.20;99.90;;;6.55;100.00;98402.78;5002809;28;20184;-70
2022/03/16 07:43:06;;;;;;;60.42;35.97;;;7.30;99.90;;;6.63;100.00;98400.94;5000471;28;20050;-70
2022/03/16 07:45:34;;;;;;;53.42;34.90;;;7.30;99.90;;;6.69;100.00;98387.97;5003596;28;20149;-69
2022/03/16 07:48:02;;;;;;;52.03;33.53;;;7.30;99.90;;;6.76;100.00;98381.00;5018795;28;20047;-70
2022/03/16 07:50:29;;;;;;;49.30;32.75;;;7.40;99.90;;;6.89;100.00;98381.69;5003458;28;20060;-70
2022/03/16 07:52:58;;;;;;;49.75;33.00;;;7.40;99.90;;;6.89;100.00;98390.28;5000220;28;20060;-70
2022/03/16 07:55:27;;;;;;;53.38;33.58;;;7.40;99.90;;;7.06;100.00;98387.41;5001894;28;20073;-70
2022/03/16 07:57:55;;;;;;;48.20;32.20;;;7.60;99.90;;;7.19;100.00;98384.66;5003374;28;20052;-70
2022/03/16 08:00:23;;;;;;;48.50;31.02;;;7.60;99.90;;;7.35;100.00;98383.53;5001099;28;20054;-70
2022/03/16 08:02:56;;;;;;;51.05;32.40;;;7.80;99.90;;;7.12;100.00;98384.75;5003442;28;20042;-70
2022/03/16 08:05:22;;;;;;;46.50;30.67;;;7.80;99.90;;;7.45;100.00;98374.72;4999749;28;20056;-70
2022/03/16 08:07:50;;;;;;;50.83;32.88;;;7.80;99.90;;;7.22;100.00;98382.03;5003853;28;20125;-70
2022/03/16 08:10:17;;;;;;;44.00;29.88;;;7.80;99.90;;;7.33;100.00;98378.38;5000729;28;20054;-71
2022/03/16 08:12:45;;;;;;;45.75;29.48;;;7.90;99.90;;;7.39;100.00;98373.97;5004039;28;20069;-71
2022/03/16 08:15:13;;;;;;;44.00;30.38;;;7.90;99.90;;;7.49;100.00;98366.06;5014975;28;20136;-71
2022/03/16 08:17:40;;;;;;;43.50;29.38;;;8.10;99.90;;;7.79;100.00;98365.53;5002914;28;20134;-71
2022/03/16 08:20:08;;;;;;;42.85;30.55;;;8.30;99.90;;;7.61;100.00;98364.97;5002007;28;20393;-70
2022/03/16 08:22:36;;;;;;;45.72;30.70;;;8.40;99.90;;;7.84;100.00;98372.31;5003717;28;20065;-70
2022/03/16 08:25:09;;;;;;;49.80;31.08;;;8.50;99.90;;;7.77;100.00;98365.56;5000658;28;20149;-71
2022/03/16 08:27:39;;;;;;;41.47;28.67;;;8.50;99.90;;;7.81;100.00;98364.63;4998532;28;20064;-71
2022/03/16 08:30:10;;;;;;;37.13;25.98;;;8.70;99.90;;;8.03;100.00;98354.72;4998861;28;20061;-71
2022/03/16 08:32:39;;;;;;;40.28;27.95;;;8.70;99.90;;;8.12;100.00;98358.88;4996737;28;20050;-70
2022/03/16 08:35:07;;;;;;;43.88;29.30;;;8.70;99.90;;;8.14;100.00;98357.06;4997494;28;20133;-71
2022/03/16 08:37:35;;;;;;;38.30;26.67;;;8.70;99.90;;;8.11;100.00;98357.16;5002577;28;20129;-71
2022/03/16 08:40:05;;;;;;;43.90;30.40;;;8.70;99.90;;;8.15;100.00;98351.88;4998322;28;20142;-71
2022/03/16 08:42:32;;;;;;;36.30;26.35;;;8.80;99.90;;;8.32;100.00;98351.50;4998996;28;20081;-71
2022/03/16 08:45:01;;;;;;;38.35;27.65;;;9.00;99.90;;;8.65;100.00;98345.69;4997103;28;20058;-71
2022/03/16 08:47:28;;;;;;;38.13;26.83;;;9.00;99.90;;;8.79;100.00;98335.88;5005209;28;20153;-71
2022/03/16 08:49:55;;;;;;;36.38;26.02;;;9.20;99.90;;;8.92;100.00;98336.44;5003924;28;20041;-68
2022/03/16 08:52:23;;;;;;;36.85;27.13;;;9.40;99.90;;;8.81;100.00;98338.44;5001985;28;20409;-71
2022/03/16 08:54:51;;;;;;;37.33;26.45;;;9.70;99.90;;;9.32;100.00;98332.84;4987508;28;20153;-71
2022/03/16 08:57:20;;;;;;;36.10;25.67;;;9.90;99.90;;;9.41;100.00;98320.50;5016475;28;20077;-71
2022/03/16 08:59:51;;;;;;;40.72;27.58;;;9.90;99.90;;;8.83;100.00;98324.56;4998942;28;20053;-70
2022/03/16 09:02:17;;;;;;;35.63;25.55;;;9.70;99.90;;;8.93;100.00;98320.00;5004832;28;20056;-70
2022/03/16 09:04:45;;;;;;;39.05;28.45;;;9.90;99.90;;;8.80;100.00;98319.44;5009861;28;20054;-71
2022/03/16 09:07:12;;;;;;;31.95;24.27;;;9.80;99.90;;;9.20;100.00;98321.91;5000462;28;20053;-71
2022/03/16 09:09:40;;;;;;;39.30;26.80;;;10.10;99.90;;;9.17;100.00;98318.56;5001836;28;20064;-71
2022/03/16 09:12:09;;;;;;;34.78;24.17;;;10.10;99.90;;;9.31;100.00;98321.66;5000905;28;20105;-69
2022/03/16 09:14:36;;;;;;;29.58;22.25;;;10.20;99.90;;;9.24;100.00;98322.72;5000740;28;20048;-70
2022/03/16 09:17:04;;;;;;;36.13;24.60;;;10.30;99.90;;;8.99;100.00;98332.81;5001530;28;20086;-69
2022/03/16 09:19:33;;;;;;;31.30;22.00;;;10.00;99.90;;;9.87;100.00;98322.78;4999988;28;20466;-71
2022/03/16 09:22:02;;;;;;;27.60;20.63;;;10.30;99.90;;;9.84;100.00;98324.56;4997327;28;20046;-70
2022/03/16 09:24:29;;;;;;;37.67;23.80;;;10.50;99.90;;;9.68;100.00;98325.88;4999890;28;20053;-70
2022/03/16 09:26:59;;;;;;;29.35;22.55;;;10.50;99.90;;;9.66;100.00;98317.28;5000647;28;20064;-70
2022/03/16 09:29:29;;;;;;;31.92;22.83;;;10.60;99.90;;;9.50;100.00;98311.66;5001652;28;20053;-70
2022/03/16 09:32:08;;;;;;;29.58;20.75;;;10.50;99.90;;;9.70;100.00;98307.69;5001909;28;20415;-70
2022/03/16 09:34:37;;;;;;;29.95;22.27;;;10.70;99.90;;;9.81;100.00;98305.66;5016272;28;20046;-70
2022/03/16 09:37:05;;;;;;;26.83;20.02;;;10.70;99.90;;;10.16;100.00;98286.47;5002424;28;20057;-70
2022/03/16 09:39:32;;;;;;;27.60;20.40;;;10.90;99.90;;;10.49;100.00;98298.50;4999889;28;20058;-71
2022/03/16 09:41:59;;;;;;;31.02;22.77;;;11.10;99.90;;;10.78;100.00;98301.03;5004475;28;20164;-71
2022/03/16 09:44:30;;;;;;;28.70;20.25;;;11.30;99.90;;;11.10;100.00;98297.38;5002732;28;20597;-71
2022/03/16 09:46:58;;;;;;;31.90;22.15;;;11.50;99.90;;;10.56;100.00;98292.22;4999985;28;20153;-70
2022/03/16 09:49:28;;;;;;;26.33;19.35;;;11.40;99.90;;;10.65;100.00;98281.56;5002596;28;20088;-70
2022/03/16 09:51:59;;;;;;;29.95;20.67;;;11.40;99.90;;;10.67;100.00;98288.41;4999485;28;20140;-70
2022/03/16 09:54:26;;;;;;;30.58;20.17;;;11.60;99.90;;;10.55;100.00;98290.53;4995986;28;20057;-70
2022/03/16 09:56:54;;;;;;;31.80;20.60;;;11.60;99.90;;;10.57;100.00;98287.00;4995447;28;20101;-70
2022/03/16 09:59:21;;;;;;;32.17;21.25;;;11.50;99.90;;;10.18;100.00;98284.69;4999662;28;20053;-70
2022/03/16 10:02:06;;;;;;;27.17;19.73;;;11.30;99.90;;;10.29;100.00;98283.56;4999610;28;20157;-70
2022/03/16 10:04:36;;;;;;;31.13;20.67;;;11.40;99.90;;;10.99;100.00;98280.47;5002760;28;20093;-69
2022/03/16 10:07:05;;;;;;;29.55;18.60;;;11.80;99.90;;;11.39;100.00;98281.72;4994233;28;20705;-70
2022/03/16 10:15:18;;;;;;;29.10;19.35;;;12.20;99.90;;;11.17;100.00;98279.00;4998943;28;20109;-69
2022/03/16 10:18:02;;;;;;;26.33;18.65;;;12.00;99.90;;;11.71;100.00;98283.19;5000470;28;20056;-70
2022/03/16 10:20:32;;;;;;;36.97;20.92;;;12.30;99.90;;;11.52;100.00;98273.44;4997049;28;20308;-70